Time;durP1;ratioP1;P1;durP2;ratioP2;P2;SDS_P1;SDS_P2;PMS_P1;PMS_P2;Temp;Humidity;BMP_temperature;BMP_pressure;BME280_temperature;BME280_humidity;BME280_pressure;Samples;Min_cycle;Max_cycle;Signal;HPM_P1;HPM_P2
2021/04/14 00:01:13;;;;;;;6.50;3.00;;;;;;;6.29;31.26;102754.28;3578915;40;20040;-77
2021/04/14 00:07:54;;;;;;;5.45;2.63;;;;;;;6.16;31.50;102750.25;3578509;40;20025;-77
2021/04/14 00:10:25;;;;;;;4.38;2.35;;;;;;;6.16;31.38;102752.97;3578659;40;20065;-77
2021/04/14 00:12:52;;;;;;;5.03;2.63;;;;;;;6.12;31.55;102752.19;3579108;40;20043;-77
2021/04/14 00:15:25;;;;;;;4.55;2.35;;;;;;;6.12;31.64;102754.91;3578729;40;20415;-77
2021/04/14 00:17:52;;;;;;;4.68;2.33;;;;;;;6.07;31.66;102753.31;3578993;40;20069;-77
2021/04/14 00:20:20;;;;;;;4.72;2.47;;;;;;;6.05;31.53;102758.81;3577880;40;20040;-76
2021/04/14 00:22:47;;;;;;;3.95;2.20;;;;;;;6.02;31.43;102756.19;3578924;40;20447;-76
2021/04/14 00:25:22;;;;;;;4.78;2.42;;;;;;;6.00;31.75;102749.06;3578768;40;20045;-74
2021/04/14 00:27:50;;;;;;;5.25;2.60;;;;;;;5.94;31.62;102752.88;3579074;40;20040;-77
2021/04/14 00:30:18;;;;;;;6.10;2.45;;;;;;;5.90;31.62;102752.13;3579199;40;20051;-75
2021/04/14 00:32:45;;;;;;;5.95;2.80;;;;;;;5.87;31.54;102754.03;3579571;40;20072;-75
2021/04/14 00:35:13;;;;;;;5.47;2.50;;;;;;;5.83;31.81;102745.16;3578579;40;20060;-75
2021/04/14 00:37:40;;;;;;;5.40;2.38;;;;;;;5.80;31.88;102749.78;3578546;40;20033;-75
2021/04/14 00:40:12;;;;;;;4.70;2.25;;;;;;;5.79;32.00;102750.72;3578680;40;20061;-75
2021/04/14 00:42:41;;;;;;;5.82;2.65;;;;;;;5.74;31.92;102748.19;3579136;40;20029;-76
2021/04/14 00:45:09;;;;;;;4.63;2.67;;;;;;;5.72;32.54;102746.47;3578606;40;20098;-77
2021/04/14 00:47:36;;;;;;;6.28;2.25;;;;;;;5.70;32.06;102748.34;3578878;40;20420;-76
2021/04/14 00:50:07;;;;;;;5.30;2.55;;;;;;;5.69;31.94;102744.72;3578463;40;20130;-76
2021/04/14 00:52:34;;;;;;;4.40;2.28;;;;;;;5.65;32.31;102743.09;3578035;40;20037;-76
2021/04/14 00:55:03;;;;;;;4.30;2.10;;;;;;;5.63;31.94;102749.50;3578698;40;20037;-75
2021/04/14 00:57:31;;;;;;;4.90;2.17;;;;;;;5.60;32.20;102750.47;3578705;40;20029;-76
2021/04/14 00:59:59;;;;;;;5.28;2.65;;;;;;;5.58;32.16;102747.84;3585858;40;20107;-75
2021/04/14 01:02:27;;;;;;;5.38;2.75;;;;;;;5.55;32.15;102745.22;3578770;40;20082;-76
2021/04/14 01:04:55;;;;;;;4.88;2.63;;;;;;;5.54;32.33;102750.72;3578864;40;20269;-76
2021/04/14 01:07:22;;;;;;;7.20;2.97;;;;;;;5.51;32.50;102742.69;3586408;40;20052;-77
2021/04/14 01:09:49;;;;;;;6.55;2.97;;;;;;;5.50;32.29;102743.63;3578624;40;20033;-76
2021/04/14 01:12:16;;;;;;;6.20;2.92;;;;;;;5.46;32.38;102737.38;3586195;40;20039;-76
2021/04/14 01:14:43;;;;;;;6.75;2.83;;;;;;;5.46;32.40;102739.19;3578638;40;20029;-77
2021/04/14 01:17:12;;;;;;;7.03;2.90;;;;;;;5.44;32.63;102736.53;3585971;40;20032;-78
2021/04/14 01:19:39;;;;;;;5.70;2.63;;;;;;;5.41;32.53;102742.09;3578903;40;20294;-76
2021/04/14 01:22:07;;;;;;;7.32;3.40;;;;;;;5.40;32.58;102740.31;3578613;40;20370;-76
2021/04/14 01:24:34;;;;;;;7.40;3.53;;;;;;;5.37;32.60;102737.69;3578712;40;20126;-75
2021/04/14 01:27:01;;;;;;;8.48;3.88;;;;;;;5.34;32.75;102729.69;3578678;40;20126;-75
2021/04/14 01:29:28;;;;;;;5.82;3.25;;;;;;;5.32;32.83;102730.66;3588655;40;20033;-76
2021/04/14 01:31:56;;;;;;;6.32;3.40;;;;;;;5.30;32.94;102728.00;3588421;40;20142;-75
2021/04/14 01:34:23;;;;;;;4.95;2.85;;;;;;;5.29;32.75;102734.38;3588505;40;20040;-76
2021/04/14 01:36:50;;;;;;;5.10;2.83;;;;;;;5.28;32.85;102739.84;3588157;40;20354;-77
2021/04/14 01:39:18;;;;;;;5.13;2.67;;;;;;;5.26;32.92;102742.63;3588502;40;20033;-75
2021/04/14 01:41:46;;;;;;;5.90;3.17;;;;;;;5.22;32.85;102736.41;3588276;40;20053;-77
2021/04/14 01:44:13;;;;;;;6.80;3.20;;;;;;;5.21;33.01;102741.88;3587467;40;20039;-77
2021/04/14 01:46:42;;;;;;;5.45;2.88;;;;;;;5.19;32.86;102732.91;3589042;40;20056;-76
2021/04/14 01:49:12;;;;;;;4.90;2.70;;;;;;;5.17;33.09;102737.50;3588646;40;20033;-76
2021/04/14 01:51:40;;;;;;;5.18;2.67;;;;;;;5.15;33.07;102740.28;3589549;40;20098;-77
2021/04/14 01:54:07;;;;;;;5.35;2.70;;;;;;;5.13;33.18;102733.13;3589260;40;20384;-76
2021/04/14 01:56:35;;;;;;;5.47;2.88;;;;;;;5.11;33.21;102727.72;3589209;40;20031;-75
2021/04/14 01:59:04;;;;;;;5.55;3.00;;;;;;;5.09;32.86;102729.63;3590185;40;20035;-75
2021/04/14 02:01:31;;;;;;;5.63;2.65;;;;;;;5.07;33.06;102728.78;3579516;40;20037;-77
2021/04/14 02:03:59;;;;;;;5.03;2.67;;;;;;;5.03;32.96;102724.38;3578882;40;20292;-76
2021/04/14 02:06:29;;;;;;;5.55;2.90;;;;;;;5.02;33.24;102730.75;3579629;40;20037;-75
2021/04/14 02:08:56;;;;;;;6.35;3.22;;;;;;;4.99;33.21;102727.28;3580036;40;20041;-76
2021/04/14 02:11:23;;;;;;;6.18;3.00;;;;;;;4.97;33.07;102726.44;3579653;40;20041;-76
2021/04/14 02:13:52;;;;;;;5.13;2.67;;;;;;;4.96;33.54;102725.53;3578757;40;20056;-76
2021/04/14 02:16:21;;;;;;;5.90;2.58;;;;;;;4.93;33.28;102725.66;3579653;40;20044;-76
2021/04/14 02:18:50;;;;;;;4.78;2.40;;;;;;;4.91;33.07;102721.22;3579873;40;20044;-76
2021/04/14 02:21:19;;;;;;;4.45;2.15;;;;;;;4.89;33.39;102726.69;3579905;40;20044;-75
2021/04/14 02:23:47;;;;;;;5.03;2.30;;;;;;;4.87;33.10;102724.94;3579490;40;20349;-75
2021/04/14 02:26:17;;;;;;;4.90;2.28;;;;;;;4.84;33.44;102721.44;3579617;40;20396;-76
2021/04/14 02:28:46;;;;;;;4.97;2.17;;;;;;;4.82;33.32;102733.25;3579467;40;20095;-76
2021/04/14 02:31:16;;;;;;;3.47;2.20;;;;;;;4.81;33.80;102720.63;3577769;40;20544;-77
2021/04/14 02:33:43;;;;;;;4.68;2.83;;;;;;;4.76;33.41;102720.78;3580150;40;20388;-76
2021/04/14 02:36:11;;;;;;;4.50;2.25;;;;;;;4.75;33.71;102716.31;3579767;40;20107;-76
2021/04/14 02:38:38;;;;;;;3.80;2.30;;;;;;;4.72;33.58;102710.97;3579840;40;20069;-76
2021/04/14 02:41:05;;;;;;;5.18;2.88;;;;;;;4.70;33.60;102712.84;3580237;40;20041;-77
2021/04/14 02:43:32;;;;;;;5.20;2.90;;;;;;;4.68;33.82;102709.31;3579669;40;20037;-76
2021/04/14 02:45:59;;;;;;;5.32;2.65;;;;;;;4.66;33.62;102707.56;3579425;40;20030;-76
2021/04/14 02:48:28;;;;;;;5.13;2.92;;;;;;;4.65;34.05;102709.41;3579322;40;20037;-76
2021/04/14 02:50:56;;;;;;;6.65;3.08;;;;;;;4.62;33.70;102709.47;3579460;40;20036;-77
2021/04/14 02:53:23;;;;;;;5.18;2.92;;;;;;;4.60;33.97;102707.78;3578630;40;20043;-77
2021/04/14 02:55:50;;;;;;;6.00;3.00;;;;;;;4.57;33.59;102705.16;3578681;40;20271;-76
2021/04/14 02:58:17;;;;;;;5.85;3.25;;;;;;;4.54;33.99;102706.13;3579107;40;20040;-76
2021/04/14 03:00:45;;;;;;;4.70;2.70;;;;;;;4.53;34.00;102703.47;3579382;40;20029;-76
2021/04/14 03:03:12;;;;;;;5.68;3.00;;;;;;;4.51;33.83;102702.66;3579562;40;20408;-76
2021/04/14 03:05:40;;;;;;;4.65;2.75;;;;;;;4.51;34.12;102716.19;3579250;40;20378;-76
2021/04/14 03:08:08;;;;;;;5.35;2.88;;;;;;;4.47;34.03;102704.56;3578774;40;20029;-76
2021/04/14 03:10:35;;;;;;;5.07;2.58;;;;;;;4.45;34.15;102704.59;3579568;40;20029;-76
2021/04/14 03:13:04;;;;;;;4.70;2.60;;;;;;;4.45;34.01;102701.00;3579660;40;20033;-76
2021/04/14 03:15:35;;;;;;;5.18;2.60;;;;;;;4.44;33.90;102704.66;3579366;40;20333;-75
2021/04/14 03:18:03;;;;;;;6.07;3.10;;;;;;;4.41;34.38;102697.50;3579918;40;20274;-76
2021/04/14 03:20:30;;;;;;;4.78;2.58;;;;;;;4.40;33.88;102700.28;3579882;40;20077;-76
2021/04/14 03:22:58;;;;;;;5.25;2.80;;;;;;;4.39;34.20;102693.97;3579241;40;20036;-76
2021/04/14 03:25:28;;;;;;;5.10;2.83;;;;;;;4.38;34.34;102694.88;3578457;40;20041;-76
2021/04/14 03:27:55;;;;;;;4.72;2.63;;;;;;;4.34;34.39;102695.94;3579409;40;20412;-76
2021/04/14 03:30:23;;;;;;;6.45;2.97;;;;;;;4.34;34.46;102692.34;3579686;40;20052;-76
2021/04/14 03:32:51;;;;;;;5.80;3.20;;;;;;;4.31;34.20;102685.19;3578538;40;20037;-77
2021/04/14 03:35:20;;;;;;;5.55;2.55;;;;;;;4.32;34.28;102686.06;3579653;40;20376;-76
2021/04/14 03:37:47;;;;;;;6.88;3.25;;;;;;;4.29;34.07;102686.16;3579243;40;20065;-76
2021/04/14 03:40:18;;;;;;;7.80;4.03;;;;;;;4.29;34.00;102687.03;3578959;40;20296;-76
2021/04/14 03:42:45;;;;;;;6.45;3.67;;;;;;;4.26;34.37;102684.44;3579479;40;20308;-76
2021/04/14 03:45:18;;;;;;;7.32;3.30;;;;;;;4.25;34.64;102682.69;3579091;40;20091;-77
2021/04/14 03:47:46;;;;;;;7.47;3.17;;;;;;;4.22;34.58;102687.28;3579371;40;20039;-76
2021/04/14 03:50:15;;;;;;;6.75;2.97;;;;;;;4.22;34.62;102679.16;3579335;40;20304;-76
2021/04/14 03:52:43;;;;;;;5.60;2.75;;;;;;;4.19;34.81;102679.28;3578203;40;20029;-77
2021/04/14 03:55:14;;;;;;;5.47;2.25;;;;;;;4.19;34.66;102682.88;3578392;40;20033;-77
2021/04/14 03:57:42;;;;;;;5.07;2.60;;;;;;;4.17;34.67;102682.03;3579187;40;20053;-77
2021/04/14 04:00:12;;;;;;;5.45;2.97;;;;;;;4.17;34.79;102681.13;3578135;40;20022;-77
2021/04/14 04:02:40;;;;;;;6.18;2.97;;;;;;;4.13;34.89;102685.75;3579372;40;20036;-77
2021/04/14 04:05:10;;;;;;;7.03;3.30;;;;;;;4.14;34.78;102683.94;3579079;40;20040;-76
2021/04/14 04:07:37;;;;;;;6.93;3.03;;;;;;;4.11;34.63;102686.75;3579085;40;20404;-77
2021/04/14 04:10:08;;;;;;;6.80;2.90;;;;;;;4.11;35.09;102687.63;3577648;40;20049;-76
2021/04/14 04:12:36;;;;;;;8.25;2.90;;;;;;;4.07;34.55;102678.69;3602351;22;20102;-75
2021/04/14 04:15:11;;;;;;;5.22;2.63;;;;;;;4.07;35.32;102681.41;3595123;40;20047;-75
2021/04/14 04:17:41;;;;;;;4.68;2.38;;;;;;;4.06;34.82;102676.03;3591358;40;20058;-75
2021/04/14 04:20:11;;;;;;;5.82;2.60;;;;;;;4.04;34.85;102677.91;3587935;40;20089;-75
2021/04/14 04:22:39;;;;;;;7.22;3.10;;;;;;;4.02;35.25;102686.09;3578689;40;20102;-74
2021/04/14 04:25:08;;;;;;;4.80;2.38;;;;;;;4.01;35.23;102678.91;3586301;40;20069;-75
2021/04/14 04:27:35;;;;;;;4.28;2.20;;;;;;;4.00;35.02;102678.94;3591991;40;20429;-74
2021/04/14 04:30:07;;;;;;;4.40;2.35;;;;;;;4.00;35.10;102670.81;3586217;40;20049;-75
2021/04/14 04:32:34;;;;;;;4.20;2.35;;;;;;;3.97;35.23;102681.72;3588110;39;20077;-75
2021/04/14 04:35:02;;;;;;;5.32;2.65;;;;;;;3.95;35.21;102684.47;3586313;40;20052;-75
2021/04/14 04:37:30;;;;;;;4.18;2.28;;;;;;;3.94;35.37;102680.03;3587614;40;20046;-74
2021/04/14 04:39:57;;;;;;;4.50;2.22;;;;;;;3.94;35.21;102688.13;3587759;40;20068;-75
2021/04/14 04:42:24;;;;;;;4.97;2.42;;;;;;;3.91;35.07;102681.91;3587534;40;20048;-74
2021/04/14 04:44:52;;;;;;;5.60;2.40;;;;;;;3.91;35.04;102687.31;3591634;39;20108;-75
2021/04/14 04:47:20;;;;;;;5.82;2.80;;;;;;;3.90;35.46;102683.72;3600609;39;20344;-74
2021/04/14 04:49:51;;;;;;;4.55;2.35;;;;;;;3.87;35.49;102685.63;3596701;39;20050;-75
2021/04/14 04:52:19;;;;;;;4.88;2.35;;;;;;;3.87;35.83;102691.03;3596211;39;20048;-75
2021/04/14 04:54:46;;;;;;;6.28;2.60;;;;;;;3.85;35.14;102691.13;3595223;39;20142;-76
2021/04/14 04:57:13;;;;;;;6.53;2.70;;;;;;;3.84;35.25;102691.16;3597283;39;20401;-75
2021/04/14 04:59:41;;;;;;;5.15;2.53;;;;;;;3.83;35.48;102697.50;3595236;39;20325;-75
2021/04/14 05:02:08;;;;;;;5.90;2.72;;;;;;;3.84;35.44;102701.97;3590964;39;20075;-75
2021/04/14 05:04:37;;;;;;;4.18;2.63;;;;;;;3.83;35.38;102694.78;3595819;39;20048;-75
2021/04/14 05:07:04;;;;;;;4.70;2.30;;;;;;;3.81;35.81;102692.13;3594680;39;20052;-76
2021/04/14 05:09:31;;;;;;;4.50;2.50;;;;;;;3.82;35.64;102699.31;3583011;39;20052;-76
2021/04/14 05:11:59;;;;;;;5.07;2.65;;;;;;;3.82;36.01;102698.41;3593069;39;20032;-75
2021/04/14 05:14:27;;;;;;;4.07;2.70;;;;;;;3.82;35.99;102699.31;3595819;39;20087;-75
2021/04/14 05:16:55;;;;;;;4.18;2.15;;;;;;;3.83;36.01;102695.69;3579705;40;20037;-77
2021/04/14 05:19:22;;;;;;;4.35;2.20;;;;;;;3.85;35.92;102711.88;3586506;40;20048;-76
2021/04/14 05:21:51;;;;;;;6.35;2.50;;;;;;;3.85;36.36;102707.34;3585077;40;20386;-76
2021/04/14 05:24:19;;;;;;;3.78;2.15;;;;;;;3.85;36.14;102710.06;3590001;40;20036;-77
2021/04/14 05:26:46;;;;;;;5.63;2.35;;;;;;;3.87;35.98;102713.59;3588829;39;20401;-78
2021/04/14 05:29:14;;;;;;;5.43;2.38;;;;;;;3.89;36.51;102717.16;3589258;40;20060;-77
2021/04/14 05:31:41;;;;;;;4.57;2.35;;;;;;;3.91;36.46;102709.88;3587562;39;20406;-76
2021/04/14 05:34:09;;;;;;;4.00;2.53;;;;;;;3.93;36.37;102705.31;3586482;40;20091;-75
2021/04/14 05:36:38;;;;;;;4.20;2.38;;;;;;;3.94;36.41;102709.81;3589550;40;20385;-76
2021/04/14 05:39:07;;;;;;;5.25;2.65;;;;;;;3.98;36.84;102705.16;3588163;40;20059;-75
2021/04/14 05:41:34;;;;;;;5.03;2.72;;;;;;;4.01;36.62;102715.91;3587051;40;20277;-76
2021/04/14 05:44:02;;;;;;;6.15;2.50;;;;;;;4.04;36.67;102710.38;3595345;39;20061;-77
2021/04/14 05:46:30;;;;;;;4.55;2.50;;;;;;;4.07;36.48;102716.63;3586920;40;20047;-80
2021/04/14 05:48:58;;;;;;;4.25;2.60;;;;;;;4.12;36.53;102726.41;3588382;40;20067;-76
2021/04/14 05:51:29;;;;;;;5.43;2.70;;;;;;;4.15;37.03;102727.22;3588019;40;20508;-76
2021/04/14 05:53:57;;;;;;;6.55;2.65;;;;;;;4.17;36.99;102729.88;3589491;40;20069;-77
2021/04/14 05:56:28;;;;;;;4.68;2.70;;;;;;;4.19;36.85;102723.50;3595198;40;20052;-75
2021/04/14 05:58:56;;;;;;;5.70;2.80;;;;;;;4.21;36.92;102728.84;3590637;40;20370;-76
2021/04/14 06:01:27;;;;;;;5.15;2.33;;;;;;;4.23;37.27;102727.88;3589004;40;20060;-76
2021/04/14 06:03:55;;;;;;;5.65;3.00;;;;;;;4.24;36.85;102734.19;3587151;39;20040;-75
2021/04/14 06:06:22;;;;;;;5.70;2.95;;;;;;;4.26;36.90;102735.91;3594265;39;20294;-76
2021/04/14 06:08:49;;;;;;;4.90;2.53;;;;;;;4.30;36.73;102739.41;3585894;40;20052;-75
2021/04/14 06:11:16;;;;;;;5.40;2.85;;;;;;;4.32;36.80;102734.84;3593143;40;20070;-74
2021/04/14 06:13:45;;;;;;;5.45;2.72;;;;;;;4.36;37.12;102736.50;3588583;40;20041;-75
2021/04/14 06:16:15;;;;;;;4.95;2.95;;;;;;;4.38;37.38;102737.34;3591043;39;20069;-76
2021/04/14 06:18:43;;;;;;;5.88;2.97;;;;;;;4.43;37.29;102740.81;3589156;40;20039;-76
2021/04/14 06:21:13;;;;;;;5.47;2.95;;;;;;;4.46;37.12;102747.03;3589275;40;20032;-77
2021/04/14 06:23:41;;;;;;;4.85;2.80;;;;;;;4.48;37.34;102741.56;3589474;40;20115;-77
2021/04/14 06:26:23;;;;;;;6.60;3.13;;;;;;;4.54;37.27;102745.91;3590857;40;20708;-78
2021/04/14 06:28:52;;;;;;;4.50;2.95;;;;;;;4.58;37.46;102744.88;3580428;40;20057;-78
2021/04/14 06:31:20;;;;;;;4.63;3.10;;;;;;;4.63;37.06;102745.59;3585718;40;20080;-79
2021/04/14 06:33:49;;;;;;;5.43;2.75;;;;;;;4.67;37.40;102745.47;3589880;40;20052;-77
2021/04/14 06:36:17;;;;;;;6.63;3.22;;;;;;;4.72;37.09;102748.91;3588543;40;20071;-79
2021/04/14 06:38:47;;;;;;;5.25;3.33;;;;;;;4.74;37.28;102747.06;3588875;40;20068;-75
2021/04/14 06:41:45;;;;;;;7.85;3.55;;;;;;;4.81;37.56;102748.63;3582746;40;20053;-76
2021/04/14 06:44:24;;;;;;;6.63;2.80;;;;;;;4.83;37.59;102751.31;3584017;40;20049;-75
2021/04/14 06:46:53;;;;;;;6.35;3.30;;;;;;;4.87;37.37;102743.94;3588352;40;20309;-73
2021/04/14 06:49:27;;;;;;;6.28;2.63;;;;;;;4.92;37.28;102739.25;3588553;40;20056;-78
2021/04/14 06:52:03;;;;;;;5.00;2.70;;;;;;;4.97;37.72;102745.41;3589397;40;21364;-77
2021/04/14 06:54:38;;;;;;;4.32;2.97;;;;;;;5.02;38.00;102744.31;3585245;40;20048;-76
2021/04/14 06:57:11;;;;;;;6.60;3.10;;;;;;;5.09;37.90;102747.72;3589256;40;20053;-75
2021/04/14 06:59:46;;;;;;;6.55;3.30;;;;;;;5.17;38.13;102745.66;3590559;40;20070;-75
2021/04/14 07:02:19;;;;;;;5.05;3.35;;;;;;;5.26;37.93;102744.44;3584065;40;20075;-77
2021/04/14 07:04:53;;;;;;;8.55;3.50;;;;;;;5.38;37.89;102749.44;3588066;40;20079;-75
2021/04/14 07:07:36;;;;;;;7.30;3.80;;;;;;;5.49;38.49;102753.59;3591080;39;20052;-76
2021/04/14 07:10:09;;;;;;;8.02;3.80;;;;;;;5.62;38.27;102761.28;3586932;40;20048;-76
2021/04/14 07:12:37;;;;;;;10.10;4.60;;;;;;;5.73;37.83;102769.97;3579079;40;20033;-76
2021/04/14 07:15:06;;;;;;;6.45;3.90;;;;;;;5.86;38.13;102772.16;3586764;40;20081;-78
2021/04/14 07:17:49;;;;;;;8.98;3.67;;;;;;;6.00;37.77;102768.09;3585459;40;20060;-76
2021/04/14 07:20:28;;;;;;;6.00;3.92;;;;;;;6.07;37.64;102773.22;3586752;40;20097;-77
2021/04/14 07:23:05;;;;;;;6.80;3.80;;;;;;;6.18;37.74;102775.53;3588778;40;20098;-76
2021/04/14 07:25:39;;;;;;;7.38;3.65;;;;;;;6.24;37.33;102781.63;3587430;40;20052;-75
2021/04/14 07:28:17;;;;;;;7.57;4.07;;;;;;;6.30;37.15;102785.94;3590643;40;20055;-74
2021/04/14 07:30:55;;;;;;;7.78;4.05;;;;;;;6.35;36.74;102789.38;3587939;40;20118;-73
2021/04/14 07:33:40;;;;;;;5.82;3.55;;;;;;;6.38;36.63;102791.97;3589457;40;20055;-73
2021/04/14 07:36:18;;;;;;;7.70;4.25;;;;;;;6.40;36.25;102789.22;3587333;39;20342;-74
2021/04/14 07:38:56;;;;;;;7.40;4.00;;;;;;;6.42;36.14;102790.03;3586977;40;20072;-74
2021/04/14 07:41:36;;;;;;;6.55;4.10;;;;;;;6.43;36.16;102789.06;3587722;40;20072;-75
2021/04/14 07:44:09;;;;;;;7.93;4.20;;;;;;;6.42;36.12;102796.34;3586754;40;20096;-75
2021/04/14 07:46:41;;;;;;;8.25;5.50;;;;;;;6.39;36.37;102792.88;3588708;40;20080;-75
2021/04/14 07:49:10;;;;;;;8.27;4.72;;;;;;;6.37;36.12;102792.91;3587604;40;20405;-76
2021/04/14 07:55:35;;;;;;;6.70;4.30;;;;;;;6.22;36.30;102791.66;3575464;40;20043;-79
2021/04/14 07:58:09;;;;;;;6.95;3.58;;;;;;;6.22;37.06;102796.22;3584838;40;20028;-77
2021/04/14 08:00:40;;;;;;;6.22;3.55;;;;;;;6.17;36.52;102798.22;3588416;40;20044;-78
2021/04/14 08:03:11;;;;;;;6.28;3.40;;;;;;;6.14;36.81;102796.50;3588907;40;20054;-77
2021/04/14 08:05:39;;;;;;;6.85;3.22;;;;;;;6.08;36.95;102793.13;3588182;40;20134;-74
2021/04/14 08:08:15;;;;;;;6.00;3.17;;;;;;;6.07;37.63;102794.06;3588644;40;20055;-75
2021/04/14 08:10:57;;;;;;;7.10;3.22;;;;;;;6.02;38.05;102793.34;3589428;40;20051;-76
2021/04/14 08:13:32;;;;;;;6.40;3.58;;;;;;;5.94;38.27;102797.22;3582629;40;20053;-77
2021/04/14 08:15:59;;;;;;;7.38;3.45;;;;;;;5.91;37.58;102799.19;3587839;40;20048;-76
2021/04/14 08:18:30;;;;;;;6.38;3.42;;;;;;;5.90;37.95;102805.56;3589751;40;20045;-78
2021/04/14 08:21:09;;;;;;;8.38;3.85;;;;;;;5.87;39.00;102802.94;3589171;40;20125;-79
2021/04/14 08:23:37;;;;;;;6.57;4.15;;;;;;;5.83;37.94;102801.28;3589435;40;20029;-80
2021/04/14 08:26:16;;;;;;;10.50;5.60;;;;;;;5.81;39.35;102814.91;3581033;40;20392;-79
2021/04/14 08:28:45;;;;;;;7.57;4.43;;;;;;;5.77;37.95;102807.81;3589663;40;20059;-77
2021/04/14 08:31:35;;;;;;;8.70;5.25;;;;;;;5.77;39.67;102810.50;3589321;40;20314;-79
2021/04/14 08:34:14;;;;;;;7.95;5.20;;;;;;;5.75;39.93;102814.25;3589940;39;20370;-76
2021/04/14 08:36:49;;;;;;;10.70;5.75;;;;;;;5.70;38.99;102811.69;3588699;40;20149;-77
2021/04/14 08:39:18;;;;;;;11.05;5.18;;;;;;;5.69;38.89;102811.72;3588812;40;20025;-77
2021/04/14 08:41:46;;;;;;;7.75;4.25;;;;;;;5.69;38.48;102815.31;3589292;40;20077;-79
2021/04/14 08:44:29;;;;;;;7.63;4.13;;;;;;;5.69;39.01;102804.47;3589599;40;20293;-80
2021/04/14 08:47:07;;;;;;;8.27;3.88;;;;;;;5.67;39.58;102795.50;3597341;40;20065;-79
2021/04/14 08:49:38;;;;;;;9.02;4.20;;;;;;;5.69;38.87;102800.88;3593727;40;20037;-82
2021/04/14 08:52:08;;;;;;;8.07;4.20;;;;;;;5.70;39.10;102794.50;3589119;40;20117;-79
2021/04/14 08:54:37;;;;;;;8.13;4.57;;;;;;;5.70;39.12;102783.63;3585813;39;20032;-77
2021/04/14 08:57:06;;;;;;;6.95;3.55;;;;;;;5.72;39.29;102779.03;3589167;40;20025;-79
2021/04/14 08:59:35;;;;;;;6.80;3.65;;;;;;;5.73;39.12;102781.72;3578989;40;20025;-79
2021/04/14 09:02:04;;;;;;;6.90;4.30;;;;;;;5.76;39.26;102773.44;3580330;40;20029;-79
2021/04/14 09:04:33;;;;;;;8.05;4.80;;;;;;;5.80;39.30;102771.50;3580743;40;20029;-77
2021/04/14 09:07:03;;;;;;;8.13;5.45;;;;;;;5.83;39.94;102772.31;3588735;40;20040;-79
2021/04/14 09:09:43;;;;;;;8.43;5.40;;;;;;;5.88;39.64;102775.72;3585862;40;20044;-80
2021/04/14 09:12:13;;;;;;;7.90;4.80;;;;;;;5.92;40.05;102773.78;3576187;40;20056;-78
2021/04/14 09:14:41;;;;;;;7.82;4.90;;;;;;;6.01;40.12;102767.13;3593382;40;20037;-80
2021/04/14 09:17:18;;;;;;;9.07;5.72;;;;;;;6.12;40.79;102773.94;3590410;40;20429;-83
2021/04/14 09:19:47;;;;;;;10.88;5.93;;;;;;;6.17;40.11;102762.91;3581448;40;20036;-77
2021/04/14 09:22:23;;;;;;;8.48;5.53;;;;;;;6.28;40.47;102761.53;3592339;40;20044;-77
2021/04/14 09:24:53;;;;;;;8.05;5.25;;;;;;;6.34;39.90;102755.84;3592413;40;20060;-77
2021/04/14 09:27:30;;;;;;;9.32;5.78;;;;;;;6.45;40.71;102760.88;3589146;40;20048;-76
2021/04/14 09:30:09;;;;;;;10.18;5.93;;;;;;;6.55;40.62;102759.59;3587750;40;20395;-77
2021/04/14 09:32:49;;;;;;;10.90;6.15;;;;;;;6.65;39.96;102762.84;3587539;40;20071;-77
2021/04/14 09:35:21;;;;;;;9.23;5.75;;;;;;;6.76;39.53;102757.84;3587300;40;20275;-77
2021/04/14 09:37:51;;;;;;;8.27;5.35;;;;;;;6.84;39.54;102752.09;3588911;40;20028;-80
2021/04/14 09:40:29;;;;;;;9.65;4.97;;;;;;;6.96;39.57;102749.75;3587910;40;20433;-79
2021/04/14 09:42:56;;;;;;;9.07;5.53;;;;;;;7.03;39.42;102745.84;3587401;40;20053;-79
2021/04/14 09:45:34;;;;;;;8.35;5.25;;;;;;;7.15;39.32;102740.88;3589419;40;20048;-80
2021/04/14 09:48:16;;;;;;;8.60;5.45;;;;;;;7.24;39.13;102740.50;3582919;40;20425;-77
2021/04/14 09:50:45;;;;;;;8.27;5.32;;;;;;;7.32;38.95;102741.03;3581865;40;20048;-75
2021/04/14 09:53:24;;;;;;;9.32;5.72;;;;;;;7.45;38.63;102734.09;3590968;40;20059;-78
2021/04/14 09:55:54;;;;;;;8.32;5.47;;;;;;;7.54;39.01;102741.88;3588425;40;20392;-76
2021/04/14 09:58:30;;;;;;;7.82;4.88;;;;;;;7.66;38.11;102735.88;3587360;40;20052;-74
2021/04/14 10:01:08;;;;;;;7.60;5.10;;;;;;;7.75;38.38;102734.56;3582695;40;20063;-75
2021/04/14 10:03:38;;;;;;;7.85;4.78;;;;;;;7.84;38.45;102732.31;3587780;40;20053;-75
2021/04/14 10:06:09;;;;;;;7.95;5.47;;;;;;;7.97;38.18;102726.34;3588682;39;20286;-76
2021/04/14 10:08:40;;;;;;;7.57;4.95;;;;;;;8.08;37.89;102727.59;3584811;40;20409;-75
2021/04/14 10:11:07;;;;;;;7.63;4.90;;;;;;;8.20;38.19;102721.59;3582454;40;20060;-75
2021/04/14 10:13:35;;;;;;;7.85;5.25;;;;;;;8.34;37.79;102718.19;3595929;39;20036;-76
2021/04/14 10:16:04;;;;;;;9.57;5.60;;;;;;;8.46;37.46;102714.03;3605181;39;20068;-75
2021/04/14 10:18:36;;;;;;;8.60;5.60;;;;;;;8.59;36.96;102715.22;3589050;40;20608;-75
2021/04/14 10:21:17;;;;;;;7.75;5.10;;;;;;;8.72;35.28;102708.22;3588727;40;20397;-75
2021/04/14 10:23:46;;;;;;;6.85;4.45;;;;;;;8.83;36.25;102707.66;3588026;40;20056;-75
2021/04/14 10:26:14;;;;;;;10.68;5.15;;;;;;;8.94;36.08;102710.75;3576109;40;20056;-76
2021/04/14 10:28:44;;;;;;;7.90;4.57;;;;;;;9.06;35.82;102710.09;3591887;40;20048;-76
2021/04/14 10:31:15;;;;;;;6.72;4.68;;;;;;;9.16;35.87;102711.41;3591565;40;20052;-75
2021/04/14 10:33:43;;;;;;;6.78;4.05;;;;;;;9.28;35.90;102707.19;3587657;40;20138;-73
2021/04/14 10:36:14;;;;;;;8.05;5.20;;;;;;;9.37;34.58;102703.97;3589620;39;20067;-75
2021/04/14 10:38:46;;;;;;;7.88;5.07;;;;;;;9.47;34.97;102705.25;3589063;40;20340;-74
2021/04/14 10:41:22;;;;;;;8.95;4.80;;;;;;;9.52;32.40;102705.03;3588070;40;20381;-74
2021/04/14 10:43:51;;;;;;;7.57;4.60;;;;;;;9.56;33.62;102704.75;3589026;40;20079;-74
2021/04/14 10:46:27;;;;;;;6.97;4.55;;;;;;;9.62;32.89;102700.84;3588737;40;20049;-76
2021/04/14 10:49:02;;;;;;;7.43;4.80;;;;;;;9.65;32.21;102696.06;3588729;40;20412;-74
2021/04/14 10:51:33;;;;;;;7.53;4.53;;;;;;;9.66;32.86;102696.97;3587825;40;20645;-75
2021/04/14 10:54:08;;;;;;;6.43;4.72;;;;;;;9.69;31.83;102691.38;3592615;40;20052;-74
2021/04/14 10:56:35;;;;;;;7.30;4.95;;;;;;;9.65;32.61;102685.16;3594979;39;20049;-74
2021/04/14 10:59:08;;;;;;;6.40;4.10;;;;;;;9.68;32.45;102687.75;3586823;40;20085;-74
2021/04/14 11:01:38;;;;;;;5.75;4.22;;;;;;;9.65;32.15;102682.41;3584575;40;20055;-74
2021/04/14 11:04:24;;;;;;;6.53;4.20;;;;;;;9.66;31.42;102675.09;3588349;40;20052;-73
2021/04/14 11:06:55;;;;;;;6.50;4.40;;;;;;;9.65;31.89;102676.06;3587985;40;20093;-73
2021/04/14 11:09:25;;;;;;;6.03;4.30;;;;;;;9.66;32.29;102672.38;3587531;40;20053;-73
2021/04/14 11:11:53;;;;;;;6.97;4.55;;;;;;;9.63;32.10;102667.09;3586183;40;20052;-73
2021/04/14 11:14:21;;;;;;;5.35;3.88;;;;;;;9.66;32.33;102666.91;3587187;40;20037;-74
2021/04/14 11:16:50;;;;;;;6.60;3.88;;;;;;;9.68;32.06;102660.44;3586183;40;20047;-75
2021/04/14 11:19:20;;;;;;;5.88;3.97;;;;;;;9.73;31.58;102660.19;3588728;40;20061;-75
2021/04/14 11:22:00;;;;;;;7.15;4.25;;;;;;;9.78;30.94;102649.91;3588020;40;20052;-76
2021/04/14 11:24:29;;;;;;;6.28;4.63;;;;;;;9.81;31.94;102646.09;3589441;40;20050;-76
2021/04/14 11:26:59;;;;;;;5.50;3.90;;;;;;;9.90;32.37;102642.84;3589018;40;20078;-75
2021/04/14 11:29:31;;;;;;;6.00;4.20;;;;;;;9.96;31.57;102635.19;3589616;40;20032;-76
2021/04/14 11:32:03;;;;;;;6.85;4.32;;;;;;;10.02;31.72;102631.25;3584806;40;20068;-75
2021/04/14 11:34:34;;;;;;;6.55;4.63;;;;;;;10.07;31.57;102621.81;3586240;40;20048;-76
2021/04/14 11:37:04;;;;;;;6.82;4.30;;;;;;;10.13;31.15;102626.94;3588549;40;20060;-75
2021/04/14 11:39:50;;;;;;;5.88;4.35;;;;;;;10.15;30.11;102621.38;3591152;39;20092;-75
2021/04/14 11:42:45;;;;;;;6.60;4.50;;;;;;;10.18;30.27;102618.47;3587543;40;20060;-75
2021/04/14 11:45:27;;;;;;;7.75;4.80;;;;;;;10.23;30.37;102626.41;3587438;40;20049;-76
2021/04/14 11:48:06;;;;;;;6.80;4.57;;;;;;;10.21;29.97;102628.34;3585054;40;20053;-76
2021/04/14 11:50:36;;;;;;;6.95;4.43;;;;;;;10.22;30.97;102622.78;3587053;40;20071;-75
2021/04/14 11:53:20;;;;;;;6.20;4.15;;;;;;;10.24;29.83;102606.28;3588321;40;20405;-75
2021/04/14 11:55:48;;;;;;;;;;;;;;;9.95;30.41;102614.31;3585393;40;20064;-76
2021/04/14 11:58:29;;;;;;;5.82;4.13;;;;;;;10.21;29.92;102601.88;3587906;40;20197;-76